Fortune Wing — VRHW2 — position and weather

sailwx.info

Track history (hours):
 
Tides and Currents Weather Stations Pressure Air Temp Water Temp Dewpoint Dewpoint Depression Visibility Wind Speed Wind Dir Waves Ship Positions

Fortune Wing

Last reported at 2017-Oct-15 02:16 UTC. Time now 2017-Oct-22 15:46 UTC.
Position S 30°37' E 031°20'.

Length 190 m; draft 10.1 m.

Type: Cargo ship. MMSI: 477389500.

Date/timePositionNaut miles runAvg speedWind from/ knotsBaromVisibWave heightAir tempDewpointWater temp
2017-Oct-15 02:16S 30°37' E 031°20'415.9
2017-Oct-15 02:00S 30°34' E 031°23'815.4
2017-Oct-15 01:29S 30°28' E 031°29'714.9
2017-Oct-15 01:00S 30°23' E 031°35'714.6
2017-Oct-15 00:31S 30°17' E 031°40'714.2
2017-Oct-15 00:00S 30°12' E 031°45'714.0
2017-Oct-14 23:31S 30°06' E 031°51'714.0
2017-Oct-14 23:01S 30°01' E 031°55'714.1
2017-Oct-14 22:30S 29°55' E 032°01'814.3
2017-Oct-14 21:58S 29°49' E 032°06'  
Track history (hours):
 
Tides and Currents Weather Stations Pressure Air Temp Water Temp Dewpoint Dewpoint Depression Visibility Wind Speed Wind Dir Waves Ship Positions

Fortune Wing

Last reported at 2017-Oct-15 02:16 UTC. Time now 2017-Oct-22 15:46 UTC.
Position S 30°37' E 031°20'.

Length 190 m; draft 10.1 m.

Type: Cargo ship. MMSI: 477389500.

Date/timePositionNaut miles runAvg speedWind from/ knotsBaromVisibWave heightAir tempDewpointWater temp
2017-Oct-15 02:16S 30°37' E 031°20'415.9
2017-Oct-15 02:00S 30°34' E 031°23'815.4
2017-Oct-15 01:29S 30°28' E 031°29'714.9
2017-Oct-15 01:00S 30°23' E 031°35'714.6
2017-Oct-15 00:31S 30°17' E 031°40'714.2
2017-Oct-15 00:00S 30°12' E 031°45'714.0
2017-Oct-14 23:31S 30°06' E 031°51'714.0
2017-Oct-14 23:01S 30°01' E 031°55'714.1
2017-Oct-14 22:30S 29°55' E 032°01'814.3
2017-Oct-14 21:58S 29°49' E 032°06'  

Dump ship's entire track history